createdAt,value
2022-11-06T00:03:26.294Z,14.20
2022-11-06T00:08:36.563Z,14.20
2022-11-06T00:13:53.201Z,14.30
2022-11-06T00:18:58.527Z,14.30
2022-11-06T00:24:06.979Z,14.30
2022-11-06T00:29:15.059Z,14.40
2022-11-06T00:34:18.216Z,14.50
2022-11-06T00:39:27.597Z,14.60
2022-11-06T00:44:44.524Z,14.60
2022-11-06T00:49:48.938Z,14.70
2022-11-06T00:54:53.191Z,14.70
2022-11-06T00:59:56.366Z,14.70
2022-11-06T01:04:59.287Z,14.70
2022-11-06T01:10:08.300Z,14.80
2022-11-06T01:15:11.490Z,14.80
2022-11-06T01:20:14.682Z,14.80
2022-11-06T01:25:18.291Z,14.80
2022-11-06T01:30:25.044Z,14.90
2022-11-06T01:35:29.604Z,14.90
2022-11-06T01:40:31.832Z,14.90
2022-11-06T01:45:39.122Z,14.90
2022-11-06T01:50:44.616Z,14.90
2022-11-06T01:55:50.258Z,14.90
2022-11-06T02:00:53.067Z,14.90
2022-11-06T02:05:56.594Z,14.80
2022-11-06T02:11:00.101Z,14.80
2022-11-06T02:16:25.396Z,14.80
2022-11-06T02:21:32.839Z,14.80
2022-11-06T02:27:05.750Z,14.80
2022-11-06T02:32:20.360Z,14.80
2022-11-06T02:37:29.386Z,14.80
2022-11-06T02:42:33.905Z,14.80
2022-11-06T02:47:38.836Z,14.80
2022-11-06T02:52:48.221Z,14.80
2022-11-06T02:57:55.089Z,14.80
2022-11-06T03:03:26.157Z,14.60
2022-11-06T03:08:58.034Z,14.20
2022-11-06T03:14:25.663Z,14.00
2022-11-06T03:20:31.059Z,13.90
2022-11-06T03:25:49.249Z,13.80
2022-11-06T03:30:56.162Z,13.80
2022-11-06T03:36:18.572Z,13.80
2022-11-06T03:41:28.299Z,13.80
2022-11-06T03:46:34.374Z,13.70
2022-11-06T03:51:50.133Z,13.60
2022-11-06T03:57:13.796Z,13.40
2022-11-06T04:02:19.898Z,13.40
2022-11-06T04:07:29.033Z,13.30
2022-11-06T04:12:53.059Z,13.20
2022-11-06T04:17:56.500Z,13.10
2022-11-06T04:24:23.891Z,13.10
2022-11-06T04:29:32.351Z,13.10
2022-11-06T04:34:57.814Z,13.00
2022-11-06T04:40:40.945Z,13.00
2022-11-06T04:45:53.758Z,13.00
2022-11-06T04:51:12.483Z,12.90
2022-11-06T05:07:53.512Z,12.90
2022-11-06T05:25:03.863Z,12.90
2022-11-06T05:30:22.467Z,12.90
2022-11-06T05:36:25.897Z,12.90
2022-11-06T05:47:27.027Z,12.90
2022-11-06T05:52:35.549Z,13.00
2022-11-06T05:58:56.282Z,13.00
2022-11-06T06:03:59.253Z,13.00
2022-11-06T06:09:11.874Z,13.00
2022-11-06T06:14:29.057Z,13.00
2022-11-06T06:19:36.845Z,13.10
2022-11-06T06:25:22.886Z,13.10
2022-11-06T06:30:38.153Z,13.10
2022-11-06T06:35:43.402Z,13.10
2022-11-06T06:40:47.334Z,13.10
2022-11-06T06:46:02.551Z,13.10
2022-11-06T06:51:08.733Z,13.00
2022-11-06T06:56:11.224Z,13.00
2022-11-06T07:01:13.716Z,13.10
2022-11-06T07:06:19.374Z,13.10
2022-11-06T07:11:44.286Z,13.10
2022-11-06T07:16:53.692Z,13.10
2022-11-06T07:22:04.212Z,13.10
2022-11-06T07:32:50.534Z,12.90
2022-11-06T07:37:56.545Z,13.00
2022-11-06T07:43:04.873Z,12.90
2022-11-06T07:48:07.873Z,13.00
2022-11-06T07:53:12.113Z,13.00
2022-11-06T08:03:58.613Z,13.00
2022-11-06T08:09:01.011Z,13.10
2022-11-06T08:14:32.056Z,13.10
2022-11-06T08:20:02.949Z,13.10
2022-11-06T08:25:08.170Z,13.20
2022-11-06T08:30:13.036Z,13.40
2022-11-06T08:35:22.033Z,13.40
2022-11-06T08:40:31.135Z,13.50
2022-11-06T08:45:41.056Z,13.50
2022-11-06T08:56:05.160Z,13.30
2022-11-06T09:01:07.420Z,13.40
2022-11-06T09:06:10.725Z,13.40
2022-11-06T09:11:14.937Z,13.60
2022-11-06T09:16:17.394Z,13.60
2022-11-06T09:21:22.511Z,13.70
2022-11-06T09:26:28.099Z,13.90
2022-11-06T09:31:35.575Z,14.10
2022-11-06T09:36:52.398Z,14.30
2022-11-06T09:42:05.981Z,14.20
2022-11-06T09:47:25.438Z,14.20
2022-11-06T09:53:00.403Z,14.00
2022-11-06T09:58:24.995Z,14.30
2022-11-06T10:03:41.361Z,14.50
2022-11-06T10:08:45.286Z,14.40
2022-11-06T10:14:09.181Z,14.70
2022-11-06T10:19:45.563Z,15.00
2022-11-06T10:24:56.560Z,15.10
2022-11-06T10:30:17.434Z,15.00
2022-11-06T10:35:51.614Z,14.90
2022-11-06T10:40:55.969Z,13.80
2022-11-06T10:46:30.630Z,12.60
2022-11-06T10:57:30.699Z,11.60
2022-11-06T11:03:08.510Z,11.50
2022-11-06T11:08:51.725Z,11.40
2022-11-06T11:19:53.368Z,11.40
2022-11-06T11:25:07.635Z,11.30
2022-11-06T11:30:23.599Z,11.60
2022-11-06T11:35:29.659Z,11.80
2022-11-06T11:40:50.631Z,12.10
2022-11-06T11:46:13.796Z,12.30
2022-11-06T11:51:47.690Z,12.80
2022-11-06T11:57:24.902Z,12.90
2022-11-06T12:02:42.632Z,12.70
2022-11-06T12:08:15.534Z,12.60
2022-11-06T12:13:47.250Z,12.70
2022-11-06T12:18:58.673Z,12.80
2022-11-06T12:24:38.727Z,12.70
2022-11-06T12:29:59.592Z,12.80
2022-11-06T12:35:23.468Z,12.80
2022-11-06T12:41:05.748Z,12.90
2022-11-06T12:46:11.587Z,13.00
2022-11-06T12:51:35.599Z,13.10
2022-11-06T12:57:03.801Z,13.40
2022-11-06T13:02:55.255Z,13.70
2022-11-06T13:08:12.901Z,13.60
2022-11-06T13:13:48.842Z,13.40
2022-11-06T13:19:16.549Z,13.20
2022-11-06T13:24:37.092Z,13.20
2022-11-06T13:29:49.738Z,13.40
2022-11-06T13:35:27.588Z,13.40
2022-11-06T13:40:44.463Z,13.50
2022-11-06T13:46:13.676Z,13.30
2022-11-06T13:51:52.593Z,13.10
2022-11-06T13:57:48.183Z,13.30
2022-11-06T14:03:18.152Z,13.50
2022-11-06T14:08:21.900Z,13.60
2022-11-06T14:13:37.926Z,13.70
2022-11-06T14:32:17.795Z,14.20
2022-11-06T14:37:46.804Z,14.40
2022-11-06T14:42:53.150Z,14.30
2022-11-06T14:47:57.754Z,14.20
2022-11-06T14:53:40.153Z,14.30
2022-11-06T14:58:56.489Z,14.30
2022-11-06T15:04:24.819Z,14.40
2022-11-06T15:09:45.151Z,14.40
2022-11-06T15:15:12.621Z,14.40
2022-11-06T15:20:35.264Z,14.20
2022-11-06T15:25:51.192Z,14.10
2022-11-06T15:31:07.838Z,14.10
2022-11-06T15:36:15.528Z,14.00
2022-11-06T15:41:41.161Z,14.00
2022-11-06T15:47:08.571Z,13.90
2022-11-06T15:53:19.966Z,13.90
2022-11-06T15:58:31.453Z,13.80
2022-11-06T16:03:56.483Z,13.70
2022-11-06T16:09:00.547Z,13.70
2022-11-06T16:27:10.282Z,13.60
2022-11-06T16:32:44.474Z,13.40
2022-11-06T16:38:07.597Z,13.20
2022-11-06T16:43:46.161Z,13.10
2022-11-06T16:55:02.517Z,12.90
2022-11-06T17:00:24.540Z,12.80
2022-11-06T17:05:38.317Z,12.80
2022-11-06T17:10:54.594Z,12.80
2022-11-06T17:16:20.487Z,12.80
2022-11-06T17:21:31.469Z,12.80
2022-11-06T17:27:10.071Z,12.80
2022-11-06T17:32:29.848Z,12.90
2022-11-06T17:42:56.897Z,13.00
2022-11-06T17:48:02.994Z,13.00
2022-11-06T17:53:09.124Z,12.90
2022-11-06T17:58:22.631Z,12.80
2022-11-06T18:03:36.175Z,12.70
2022-11-06T18:08:44.131Z,12.70
2022-11-06T18:13:53.535Z,12.70
2022-11-06T18:18:56.610Z,12.70
2022-11-06T18:24:01.703Z,12.60
2022-11-06T18:29:09.700Z,12.60
2022-11-06T18:34:20.290Z,12.60
2022-11-06T18:39:29.313Z,12.60
2022-11-06T18:44:51.849Z,12.70
2022-11-06T18:50:07.693Z,12.60
2022-11-06T18:55:12.542Z,12.60
2022-11-06T19:00:17.567Z,12.70
2022-11-06T19:05:45.896Z,12.80
2022-11-06T19:10:50.188Z,12.80
2022-11-06T19:16:05.256Z,12.80
2022-11-06T19:21:11.987Z,12.90
2022-11-06T19:26:30.682Z,12.90
2022-11-06T19:31:41.881Z,12.90
2022-11-06T19:36:47.209Z,12.90
2022-11-06T19:41:50.755Z,12.90
2022-11-06T19:46:59.878Z,12.80
2022-11-06T19:52:42.158Z,12.90
2022-11-06T19:57:30.535Z,12.90
2022-11-06T20:02:35.329Z,12.90
2022-11-06T20:07:40.756Z,12.90
2022-11-06T20:12:43.077Z,12.90
2022-11-06T20:17:45.597Z,12.90
2022-11-06T20:22:49.902Z,12.90
2022-11-06T20:27:53.993Z,12.80
2022-11-06T20:33:02.913Z,12.90
2022-11-06T20:38:06.220Z,12.90
2022-11-06T20:43:12.689Z,13.00
2022-11-06T20:48:15.508Z,13.00
2022-11-06T20:53:18.164Z,13.00
2022-11-06T20:58:23.430Z,13.10
2022-11-06T21:03:25.987Z,13.10
2022-11-06T21:08:29.562Z,13.10
2022-11-06T21:13:32.262Z,13.10
2022-11-06T21:18:41.041Z,13.10
2022-11-06T21:23:43.543Z,13.10
2022-11-06T21:28:46.738Z,13.10
2022-11-06T21:33:51.110Z,13.10
2022-11-06T21:38:56.620Z,13.10
2022-11-06T21:43:58.808Z,13.10
2022-11-06T21:49:01.360Z,13.20
2022-11-06T21:54:22.157Z,13.20
2022-11-06T21:59:28.420Z,13.20
2022-11-06T22:04:33.628Z,13.30
2022-11-06T22:09:36.430Z,13.30
2022-11-06T22:14:41.150Z,13.40
2022-11-06T22:19:43.243Z,13.40
2022-11-06T22:24:46.909Z,13.40
2022-11-06T22:29:49.538Z,13.40
2022-11-06T22:34:51.775Z,13.40
2022-11-06T22:39:54.608Z,13.40
2022-11-06T22:44:56.722Z,13.40
2022-11-06T22:49:59.265Z,13.30
2022-11-06T22:55:01.466Z,13.30
2022-11-06T23:00:06.212Z,13.20
2022-11-06T23:05:08.578Z,13.10
2022-11-06T23:10:10.871Z,13.20
2022-11-06T23:15:12.969Z,13.20
2022-11-06T23:20:15.784Z,13.20
2022-11-06T23:25:19.752Z,13.10
2022-11-06T23:30:22.150Z,13.10
2022-11-06T23:35:32.000Z,13.10
2022-11-06T23:40:35.629Z,13.00
2022-11-06T23:45:51.421Z,13.10
2022-11-06T23:50:53.915Z,13.10
2022-11-06T23:55:56.028Z,13.10
